sensor_id;sensor_type;location;lat;lon;timestamp;P1;durP1;ratioP1;P2;durP2;ratioP2
4047;SDS011;2038;51.728;6.674;2023-05-10T00:01:39;26.37;;;17.33;;
4047;SDS011;2038;51.728;6.674;2023-05-10T00:04:05;24.87;;;15.80;;
4047;SDS011;2038;51.728;6.674;2023-05-10T00:06:32;26.73;;;16.60;;
4047;SDS011;2038;51.728;6.674;2023-05-10T00:08:58;23.43;;;15.20;;
4047;SDS011;2038;51.728;6.674;2023-05-10T00:11:24;20.43;;;13.60;;
4047;SDS011;2038;51.728;6.674;2023-05-10T00:13:51;24.07;;;14.40;;
4047;SDS011;2038;51.728;6.674;2023-05-10T00:16:17;26.50;;;15.67;;
4047;SDS011;2038;51.728;6.674;2023-05-10T00:18:43;27.70;;;16.60;;
4047;SDS011;2038;51.728;6.674;2023-05-10T00:21:09;25.90;;;17.43;;
4047;SDS011;2038;51.728;6.674;2023-05-10T00:23:36;30.20;;;15.77;;
4047;SDS011;2038;51.728;6.674;2023-05-10T00:26:02;28.57;;;17.70;;
4047;SDS011;2038;51.728;6.674;2023-05-10T00:28:28;25.10;;;16.23;;
4047;SDS011;2038;51.728;6.674;2023-05-10T00:30:55;31.60;;;19.30;;
4047;SDS011;2038;51.728;6.674;2023-05-10T00:33:22;27.10;;;18.00;;
4047;SDS011;2038;51.728;6.674;2023-05-10T00:35:48;25.67;;;15.70;;
4047;SDS011;2038;51.728;6.674;2023-05-10T00:38:14;24.87;;;16.63;;
4047;SDS011;2038;51.728;6.674;2023-05-10T00:40:40;27.50;;;17.33;;
4047;SDS011;2038;51.728;6.674;2023-05-10T00:43:07;25.80;;;16.23;;
4047;SDS011;2038;51.728;6.674;2023-05-10T00:45:33;27.40;;;17.20;;
4047;SDS011;2038;51.728;6.674;2023-05-10T00:48:02;26.80;;;17.20;;
4047;SDS011;2038;51.728;6.674;2023-05-10T00:50:30;29.97;;;17.40;;
4047;SDS011;2038;51.728;6.674;2023-05-10T00:52:58;27.87;;;16.37;;
4047;SDS011;2038;51.728;6.674;2023-05-10T00:55:26;26.33;;;18.37;;
4047;SDS011;2038;51.728;6.674;2023-05-10T00:57:53;28.30;;;17.53;;
4047;SDS011;2038;51.728;6.674;2023-05-10T01:00:19;27.87;;;17.07;;
4047;SDS011;2038;51.728;6.674;2023-05-10T01:02:46;30.90;;;17.57;;
4047;SDS011;2038;51.728;6.674;2023-05-10T01:05:14;29.83;;;18.67;;
4047;SDS011;2038;51.728;6.674;2023-05-10T01:07:40;27.20;;;16.87;;
4047;SDS011;2038;51.728;6.674;2023-05-10T01:10:07;31.73;;;17.20;;
4047;SDS011;2038;51.728;6.674;2023-05-10T01:12:35;28.40;;;15.63;;
4047;SDS011;2038;51.728;6.674;2023-05-10T01:15:06;27.70;;;17.40;;
4047;SDS011;2038;51.728;6.674;2023-05-10T01:17:36;30.80;;;18.23;;
4047;SDS011;2038;51.728;6.674;2023-05-10T01:20:07;28.93;;;16.60;;
4047;SDS011;2038;51.728;6.674;2023-05-10T01:22:43;29.40;;;17.90;;
4047;SDS011;2038;51.728;6.674;2023-05-10T01:26:02;29.50;;;17.37;;
4047;SDS011;2038;51.728;6.674;2023-05-10T01:32:15;30.23;;;16.50;;
4047;SDS011;2038;51.728;6.674;2023-05-10T01:35:10;33.87;;;18.40;;
4047;SDS011;2038;51.728;6.674;2023-05-10T01:43:01;31.23;;;17.50;;
4047;SDS011;2038;51.728;6.674;2023-05-10T01:45:47;34.33;;;20.13;;
4047;SDS011;2038;51.728;6.674;2023-05-10T01:48:50;37.33;;;19.70;;
4047;SDS011;2038;51.728;6.674;2023-05-10T01:51:22;33.63;;;19.50;;
4047;SDS011;2038;51.728;6.674;2023-05-10T01:53:51;36.70;;;18.40;;
4047;SDS011;2038;51.728;6.674;2023-05-10T01:56:26;36.47;;;18.40;;
4047;SDS011;2038;51.728;6.674;2023-05-10T01:58:57;33.47;;;19.13;;
4047;SDS011;2038;51.728;6.674;2023-05-10T02:01:28;36.77;;;19.60;;
4047;SDS011;2038;51.728;6.674;2023-05-10T02:03:56;33.40;;;18.20;;
4047;SDS011;2038;51.728;6.674;2023-05-10T02:06:24;34.77;;;18.77;;
4047;SDS011;2038;51.728;6.674;2023-05-10T02:08:52;41.23;;;21.20;;
4047;SDS011;2038;51.728;6.674;2023-05-10T02:11:20;31.43;;;18.90;;
4047;SDS011;2038;51.728;6.674;2023-05-10T02:13:49;35.83;;;19.53;;
4047;SDS011;2038;51.728;6.674;2023-05-10T02:16:18;33.23;;;20.00;;
4047;SDS011;2038;51.728;6.674;2023-05-10T02:18:51;30.80;;;17.90;;
4047;SDS011;2038;51.728;6.674;2023-05-10T02:21:20;38.50;;;20.77;;
4047;SDS011;2038;51.728;6.674;2023-05-10T02:23:49;41.73;;;21.23;;
4047;SDS011;2038;51.728;6.674;2023-05-10T02:26:20;39.80;;;20.17;;
4047;SDS011;2038;51.728;6.674;2023-05-10T02:28:50;45.83;;;21.07;;
4047;SDS011;2038;51.728;6.674;2023-05-10T02:31:19;41.00;;;21.57;;
4047;SDS011;2038;51.728;6.674;2023-05-10T02:33:47;41.10;;;22.30;;
4047;SDS011;2038;51.728;6.674;2023-05-10T02:36:16;38.37;;;21.70;;
4047;SDS011;2038;51.728;6.674;2023-05-10T02:38:45;40.20;;;19.87;;
4047;SDS011;2038;51.728;6.674;2023-05-10T02:41:16;41.90;;;22.57;;
4047;SDS011;2038;51.728;6.674;2023-05-10T02:43:47;51.33;;;26.77;;
4047;SDS011;2038;51.728;6.674;2023-05-10T02:46:24;49.03;;;24.37;;
4047;SDS011;2038;51.728;6.674;2023-05-10T02:48:50;52.20;;;26.93;;
4047;SDS011;2038;51.728;6.674;2023-05-10T02:51:16;52.90;;;24.70;;
4047;SDS011;2038;51.728;6.674;2023-05-10T02:53:49;53.07;;;26.47;;
4047;SDS011;2038;51.728;6.674;2023-05-10T02:56:23;47.10;;;25.20;;
4047;SDS011;2038;51.728;6.674;2023-05-10T02:58:58;53.60;;;27.03;;
4047;SDS011;2038;51.728;6.674;2023-05-10T03:01:24;51.37;;;24.43;;
4047;SDS011;2038;51.728;6.674;2023-05-10T03:03:50;55.20;;;27.77;;
4047;SDS011;2038;51.728;6.674;2023-05-10T03:06:16;57.10;;;27.47;;
4047;SDS011;2038;51.728;6.674;2023-05-10T03:08:43;53.03;;;26.73;;
4047;SDS011;2038;51.728;6.674;2023-05-10T03:19:55;51.17;;;26.80;;
4047;SDS011;2038;51.728;6.674;2023-05-10T03:22:25;50.77;;;26.67;;
4047;SDS011;2038;51.728;6.674;2023-05-10T03:24:59;48.13;;;27.13;;
4047;SDS011;2038;51.728;6.674;2023-05-10T03:27:31;52.37;;;27.53;;
4047;SDS011;2038;51.728;6.674;2023-05-10T03:30:00;67.10;;;30.10;;
4047;SDS011;2038;51.728;6.674;2023-05-10T03:32:28;61.50;;;28.73;;
4047;SDS011;2038;51.728;6.674;2023-05-10T03:34:56;48.17;;;26.97;;
4047;SDS011;2038;51.728;6.674;2023-05-10T03:37:23;71.57;;;33.40;;
4047;SDS011;2038;51.728;6.674;2023-05-10T03:39:49;62.10;;;33.00;;
4047;SDS011;2038;51.728;6.674;2023-05-10T03:42:15;64.70;;;30.63;;
4047;SDS011;2038;51.728;6.674;2023-05-10T03:44:42;59.90;;;30.47;;
4047;SDS011;2038;51.728;6.674;2023-05-10T03:47:09;58.63;;;30.50;;
4047;SDS011;2038;51.728;6.674;2023-05-10T03:49:36;71.43;;;31.30;;
4047;SDS011;2038;51.728;6.674;2023-05-10T03:52:02;74.00;;;33.00;;
4047;SDS011;2038;51.728;6.674;2023-05-10T03:54:29;58.60;;;30.50;;
4047;SDS011;2038;51.728;6.674;2023-05-10T03:56:55;60.63;;;31.30;;
4047;SDS011;2038;51.728;6.674;2023-05-10T03:59:21;72.67;;;37.00;;
4047;SDS011;2038;51.728;6.674;2023-05-10T04:01:47;76.40;;;32.50;;
4047;SDS011;2038;51.728;6.674;2023-05-10T04:04:13;82.50;;;37.60;;
4047;SDS011;2038;51.728;6.674;2023-05-10T04:06:40;78.00;;;38.17;;
4047;SDS011;2038;51.728;6.674;2023-05-10T04:09:06;91.47;;;41.30;;
4047;SDS011;2038;51.728;6.674;2023-05-10T04:11:33;84.50;;;41.07;;
4047;SDS011;2038;51.728;6.674;2023-05-10T04:13:59;86.07;;;39.20;;
4047;SDS011;2038;51.728;6.674;2023-05-10T04:16:25;82.87;;;39.83;;
4047;SDS011;2038;51.728;6.674;2023-05-10T04:18:52;86.53;;;42.97;;
4047;SDS011;2038;51.728;6.674;2023-05-10T04:21:18;104.07;;;46.07;;
4047;SDS011;2038;51.728;6.674;2023-05-10T04:23:45;107.60;;;41.77;;
4047;SDS011;2038;51.728;6.674;2023-05-10T04:26:11;96.87;;;43.00;;
4047;SDS011;2038;51.728;6.674;2023-05-10T04:28:38;95.53;;;42.63;;
4047;SDS011;2038;51.728;6.674;2023-05-10T04:31:08;106.60;;;44.40;;
4047;SDS011;2038;51.728;6.674;2023-05-10T04:33:35;92.70;;;43.63;;
4047;SDS011;2038;51.728;6.674;2023-05-10T04:36:02;101.20;;;41.73;;
4047;SDS011;2038;51.728;6.674;2023-05-10T04:38:29;104.23;;;45.13;;
4047;SDS011;2038;51.728;6.674;2023-05-10T04:41:08;85.33;;;41.40;;
4047;SDS011;2038;51.728;6.674;2023-05-10T04:43:36;93.13;;;40.40;;
4047;SDS011;2038;51.728;6.674;2023-05-10T04:46:03;100.87;;;44.47;;
4047;SDS011;2038;51.728;6.674;2023-05-10T04:48:32;89.70;;;40.33;;
4047;SDS011;2038;51.728;6.674;2023-05-10T04:50:58;86.33;;;38.30;;
4047;SDS011;2038;51.728;6.674;2023-05-10T04:53:25;95.80;;;42.47;;
4047;SDS011;2038;51.728;6.674;2023-05-10T04:55:51;92.97;;;42.17;;
4047;SDS011;2038;51.728;6.674;2023-05-10T04:58:17;92.67;;;40.60;;
4047;SDS011;2038;51.728;6.674;2023-05-10T05:00:44;100.10;;;40.60;;
4047;SDS011;2038;51.728;6.674;2023-05-10T05:03:10;101.63;;;42.30;;
4047;SDS011;2038;51.728;6.674;2023-05-10T05:05:36;96.33;;;42.10;;
4047;SDS011;2038;51.728;6.674;2023-05-10T05:08:02;104.40;;;41.37;;
4047;SDS011;2038;51.728;6.674;2023-05-10T05:10:29;81.53;;;40.70;;
4047;SDS011;2038;51.728;6.674;2023-05-10T05:12:55;100.57;;;40.63;;
4047;SDS011;2038;51.728;6.674;2023-05-10T05:15:21;104.73;;;45.57;;
4047;SDS011;2038;51.728;6.674;2023-05-10T05:17:48;94.37;;;41.77;;
4047;SDS011;2038;51.728;6.674;2023-05-10T05:20:14;103.93;;;44.37;;
4047;SDS011;2038;51.728;6.674;2023-05-10T05:22:40;93.13;;;42.20;;
4047;SDS011;2038;51.728;6.674;2023-05-10T05:25:07;92.50;;;42.00;;
4047;SDS011;2038;51.728;6.674;2023-05-10T05:27:33;90.67;;;41.47;;
4047;SDS011;2038;51.728;6.674;2023-05-10T05:29:59;100.93;;;43.17;;
4047;SDS011;2038;51.728;6.674;2023-05-10T05:32:27;113.50;;;44.10;;
4047;SDS011;2038;51.728;6.674;2023-05-10T05:34:53;103.67;;;41.63;;
4047;SDS011;2038;51.728;6.674;2023-05-10T05:37:20;104.70;;;43.77;;
4047;SDS011;2038;51.728;6.674;2023-05-10T05:39:47;98.53;;;43.60;;
4047;SDS011;2038;51.728;6.674;2023-05-10T05:42:13;108.73;;;45.33;;
4047;SDS011;2038;51.728;6.674;2023-05-10T05:44:41;96.63;;;43.67;;
4047;SDS011;2038;51.728;6.674;2023-05-10T05:47:07;96.53;;;43.77;;
4047;SDS011;2038;51.728;6.674;2023-05-10T05:49:34;96.33;;;46.53;;
4047;SDS011;2038;51.728;6.674;2023-05-10T05:52:00;109.20;;;43.63;;
4047;SDS011;2038;51.728;6.674;2023-05-10T05:54:28;113.33;;;45.80;;
4047;SDS011;2038;51.728;6.674;2023-05-10T05:56:59;103.87;;;46.23;;
4047;SDS011;2038;51.728;6.674;2023-05-10T05:59:25;110.60;;;46.23;;
4047;SDS011;2038;51.728;6.674;2023-05-10T06:01:52;104.97;;;45.80;;
4047;SDS011;2038;51.728;6.674;2023-05-10T06:04:18;99.00;;;43.93;;
4047;SDS011;2038;51.728;6.674;2023-05-10T06:06:45;103.43;;;46.80;;
4047;SDS011;2038;51.728;6.674;2023-05-10T06:09:11;102.63;;;47.77;;
4047;SDS011;2038;51.728;6.674;2023-05-10T06:11:37;111.90;;;49.63;;
4047;SDS011;2038;51.728;6.674;2023-05-10T06:14:04;99.23;;;44.50;;
4047;SDS011;2038;51.728;6.674;2023-05-10T06:16:32;95.30;;;42.53;;
4047;SDS011;2038;51.728;6.674;2023-05-10T06:18:59;89.90;;;45.50;;
4047;SDS011;2038;51.728;6.674;2023-05-10T06:21:25;94.13;;;46.03;;
4047;SDS011;2038;51.728;6.674;2023-05-10T06:23:52;95.93;;;45.50;;
4047;SDS011;2038;51.728;6.674;2023-05-10T06:26:18;90.73;;;45.33;;
4047;SDS011;2038;51.728;6.674;2023-05-10T06:28:45;88.07;;;43.40;;
4047;SDS011;2038;51.728;6.674;2023-05-10T06:31:12;88.57;;;43.60;;
4047;SDS011;2038;51.728;6.674;2023-05-10T06:33:38;100.07;;;46.53;;
4047;SDS011;2038;51.728;6.674;2023-05-10T06:36:04;87.87;;;45.33;;
4047;SDS011;2038;51.728;6.674;2023-05-10T06:38:30;81.63;;;40.53;;
4047;SDS011;2038;51.728;6.674;2023-05-10T06:40:57;93.50;;;44.23;;
4047;SDS011;2038;51.728;6.674;2023-05-10T06:43:23;85.87;;;42.90;;
4047;SDS011;2038;51.728;6.674;2023-05-10T06:45:51;84.77;;;43.03;;
4047;SDS011;2038;51.728;6.674;2023-05-10T06:48:17;73.93;;;41.10;;
4047;SDS011;2038;51.728;6.674;2023-05-10T06:50:43;76.20;;;39.50;;
4047;SDS011;2038;51.728;6.674;2023-05-10T06:53:09;85.23;;;42.10;;
4047;SDS011;2038;51.728;6.674;2023-05-10T06:55:36;81.17;;;39.80;;
4047;SDS011;2038;51.728;6.674;2023-05-10T06:58:03;69.40;;;38.37;;
4047;SDS011;2038;51.728;6.674;2023-05-10T07:00:29;76.50;;;38.00;;
4047;SDS011;2038;51.728;6.674;2023-05-10T07:02:55;72.27;;;38.20;;
4047;SDS011;2038;51.728;6.674;2023-05-10T07:05:21;79.10;;;40.17;;
4047;SDS011;2038;51.728;6.674;2023-05-10T07:07:48;74.27;;;40.33;;
4047;SDS011;2038;51.728;6.674;2023-05-10T07:10:14;68.27;;;37.97;;
4047;SDS011;2038;51.728;6.674;2023-05-10T07:12:40;71.50;;;38.50;;
4047;SDS011;2038;51.728;6.674;2023-05-10T07:15:06;75.17;;;36.87;;
4047;SDS011;2038;51.728;6.674;2023-05-10T07:17:33;74.40;;;38.70;;
4047;SDS011;2038;51.728;6.674;2023-05-10T07:20:00;76.20;;;38.47;;
4047;SDS011;2038;51.728;6.674;2023-05-10T07:22:26;76.93;;;37.63;;
4047;SDS011;2038;51.728;6.674;2023-05-10T07:24:52;75.80;;;40.40;;
4047;SDS011;2038;51.728;6.674;2023-05-10T07:27:19;81.07;;;37.83;;
4047;SDS011;2038;51.728;6.674;2023-05-10T07:29:45;76.47;;;40.00;;
4047;SDS011;2038;51.728;6.674;2023-05-10T07:32:11;80.40;;;41.53;;
4047;SDS011;2038;51.728;6.674;2023-05-10T07:34:37;73.80;;;39.93;;
4047;SDS011;2038;51.728;6.674;2023-05-10T07:37:03;79.27;;;41.30;;
4047;SDS011;2038;51.728;6.674;2023-05-10T07:39:31;71.67;;;40.50;;
4047;SDS011;2038;51.728;6.674;2023-05-10T07:41:57;75.43;;;38.83;;
4047;SDS011;2038;51.728;6.674;2023-05-10T07:44:23;68.43;;;34.90;;
4047;SDS011;2038;51.728;6.674;2023-05-10T07:46:49;64.90;;;36.33;;
4047;SDS011;2038;51.728;6.674;2023-05-10T07:49:16;67.13;;;36.70;;
4047;SDS011;2038;51.728;6.674;2023-05-10T07:51:42;68.67;;;40.60;;
4047;SDS011;2038;51.728;6.674;2023-05-10T07:54:08;64.37;;;38.17;;
4047;SDS011;2038;51.728;6.674;2023-05-10T07:56:35;64.90;;;37.10;;
4047;SDS011;2038;51.728;6.674;2023-05-10T07:59:02;63.13;;;36.10;;
4047;SDS011;2038;51.728;6.674;2023-05-10T08:01:30;71.33;;;37.70;;
4047;SDS011;2038;51.728;6.674;2023-05-10T08:03:58;65.93;;;35.97;;
4047;SDS011;2038;51.728;6.674;2023-05-10T08:06:26;61.93;;;36.10;;
4047;SDS011;2038;51.728;6.674;2023-05-10T08:08:54;62.70;;;33.77;;
4047;SDS011;2038;51.728;6.674;2023-05-10T08:11:21;65.13;;;33.27;;
4047;SDS011;2038;51.728;6.674;2023-05-10T08:13:48;55.63;;;34.53;;
4047;SDS011;2038;51.728;6.674;2023-05-10T08:16:16;60.30;;;34.27;;
4047;SDS011;2038;51.728;6.674;2023-05-10T08:18:43;60.97;;;34.20;;
4047;SDS011;2038;51.728;6.674;2023-05-10T08:21:11;61.77;;;32.80;;
4047;SDS011;2038;51.728;6.674;2023-05-10T08:23:38;57.97;;;31.47;;
4047;SDS011;2038;51.728;6.674;2023-05-10T08:26:05;50.00;;;30.73;;
4047;SDS011;2038;51.728;6.674;2023-05-10T08:28:32;48.20;;;29.83;;
4047;SDS011;2038;51.728;6.674;2023-05-10T08:30:58;49.70;;;29.77;;
4047;SDS011;2038;51.728;6.674;2023-05-10T08:33:24;55.50;;;29.87;;
4047;SDS011;2038;51.728;6.674;2023-05-10T08:35:51;56.23;;;29.00;;
4047;SDS011;2038;51.728;6.674;2023-05-10T08:38:17;48.17;;;29.20;;
4047;SDS011;2038;51.728;6.674;2023-05-10T08:40:44;51.43;;;27.70;;
4047;SDS011;2038;51.728;6.674;2023-05-10T08:43:13;52.30;;;28.47;;
4047;SDS011;2038;51.728;6.674;2023-05-10T08:45:41;47.60;;;29.17;;
4047;SDS011;2038;51.728;6.674;2023-05-10T08:48:12;51.20;;;29.83;;
4047;SDS011;2038;51.728;6.674;2023-05-10T08:50:39;55.10;;;32.47;;
4047;SDS011;2038;51.728;6.674;2023-05-10T08:53:11;54.13;;;29.87;;
4047;SDS011;2038;51.728;6.674;2023-05-10T08:55:41;55.07;;;29.77;;
4047;SDS011;2038;51.728;6.674;2023-05-10T08:58:08;51.93;;;28.87;;
4047;SDS011;2038;51.728;6.674;2023-05-10T09:00:34;61.37;;;31.37;;
4047;SDS011;2038;51.728;6.674;2023-05-10T09:03:03;58.80;;;31.70;;
4047;SDS011;2038;51.728;6.674;2023-05-10T09:05:30;62.60;;;31.90;;
4047;SDS011;2038;51.728;6.674;2023-05-10T09:07:57;55.03;;;28.93;;
4047;SDS011;2038;51.728;6.674;2023-05-10T09:10:25;56.67;;;31.47;;
4047;SDS011;2038;51.728;6.674;2023-05-10T09:12:53;47.93;;;27.93;;
4047;SDS011;2038;51.728;6.674;2023-05-10T09:15:21;51.43;;;29.60;;
4047;SDS011;2038;51.728;6.674;2023-05-10T09:17:48;53.20;;;30.87;;
4047;SDS011;2038;51.728;6.674;2023-05-10T09:20:15;60.13;;;31.57;;
4047;SDS011;2038;51.728;6.674;2023-05-10T09:22:42;54.93;;;32.77;;
4047;SDS011;2038;51.728;6.674;2023-05-10T09:25:12;64.27;;;31.47;;
4047;SDS011;2038;51.728;6.674;2023-05-10T09:27:41;52.03;;;29.93;;
4047;SDS011;2038;51.728;6.674;2023-05-10T09:30:28;56.30;;;30.70;;
4047;SDS011;2038;51.728;6.674;2023-05-10T09:32:56;52.43;;;29.23;;
4047;SDS011;2038;51.728;6.674;2023-05-10T09:35:25;53.60;;;29.97;;
4047;SDS011;2038;51.728;6.674;2023-05-10T09:37:54;58.27;;;29.70;;
4047;SDS011;2038;51.728;6.674;2023-05-10T09:40:24;54.77;;;32.10;;
4047;SDS011;2038;51.728;6.674;2023-05-10T09:43:03;59.97;;;31.50;;
4047;SDS011;2038;51.728;6.674;2023-05-10T09:45:33;55.57;;;30.63;;
4047;SDS011;2038;51.728;6.674;2023-05-10T09:48:01;51.50;;;28.50;;
4047;SDS011;2038;51.728;6.674;2023-05-10T09:50:29;56.57;;;32.77;;
4047;SDS011;2038;51.728;6.674;2023-05-10T09:52:59;49.50;;;29.23;;
4047;SDS011;2038;51.728;6.674;2023-05-10T09:55:44;49.03;;;27.23;;
4047;SDS011;2038;51.728;6.674;2023-05-10T09:58:12;49.77;;;27.10;;
4047;SDS011;2038;51.728;6.674;2023-05-10T10:00:42;56.40;;;31.03;;
4047;SDS011;2038;51.728;6.674;2023-05-10T10:03:14;47.93;;;29.83;;
4047;SDS011;2038;51.728;6.674;2023-05-10T10:05:42;49.33;;;28.30;;
4047;SDS011;2038;51.728;6.674;2023-05-10T10:08:11;48.13;;;26.07;;
4047;SDS011;2038;51.728;6.674;2023-05-10T10:10:38;48.53;;;26.23;;
4047;SDS011;2038;51.728;6.674;2023-05-10T10:13:10;46.10;;;26.67;;
4047;SDS011;2038;51.728;6.674;2023-05-10T10:15:36;53.60;;;27.80;;
4047;SDS011;2038;51.728;6.674;2023-05-10T10:18:03;41.60;;;25.77;;
4047;SDS011;2038;51.728;6.674;2023-05-10T10:20:31;51.50;;;27.83;;
4047;SDS011;2038;51.728;6.674;2023-05-10T10:22:57;42.23;;;24.07;;
4047;SDS011;2038;51.728;6.674;2023-05-10T10:25:23;39.50;;;24.47;;
4047;SDS011;2038;51.728;6.674;2023-05-10T10:35:47;43.67;;;23.83;;
4047;SDS011;2038;51.728;6.674;2023-05-10T10:38:14;38.60;;;22.43;;
4047;SDS011;2038;51.728;6.674;2023-05-10T10:40:41;39.07;;;23.70;;
4047;SDS011;2038;51.728;6.674;2023-05-10T10:43:26;35.60;;;22.33;;
4047;SDS011;2038;51.728;6.674;2023-05-10T10:49:07;41.53;;;26.13;;
4047;SDS011;2038;51.728;6.674;2023-05-10T10:51:38;46.43;;;26.63;;
4047;SDS011;2038;51.728;6.674;2023-05-10T10:54:11;48.30;;;25.97;;
4047;SDS011;2038;51.728;6.674;2023-05-10T10:56:37;47.00;;;27.10;;
4047;SDS011;2038;51.728;6.674;2023-05-10T10:59:03;43.80;;;27.40;;
4047;SDS011;2038;51.728;6.674;2023-05-10T11:01:33;51.63;;;28.20;;
4047;SDS011;2038;51.728;6.674;2023-05-10T11:06:33;53.73;;;29.53;;
4047;SDS011;2038;51.728;6.674;2023-05-10T11:09:07;48.30;;;31.37;;
4047;SDS011;2038;51.728;6.674;2023-05-10T11:11:36;51.03;;;29.80;;
4047;SDS011;2038;51.728;6.674;2023-05-10T11:14:19;53.30;;;29.87;;
4047;SDS011;2038;51.728;6.674;2023-05-10T11:16:47;45.03;;;28.63;;
4047;SDS011;2038;51.728;6.674;2023-05-10T11:19:14;52.67;;;29.83;;
4047;SDS011;2038;51.728;6.674;2023-05-10T11:24:36;48.93;;;28.60;;
4047;SDS011;2038;51.728;6.674;2023-05-10T11:27:02;45.70;;;30.30;;
4047;SDS011;2038;51.728;6.674;2023-05-10T11:29:29;52.97;;;30.70;;
4047;SDS011;2038;51.728;6.674;2023-05-10T11:31:58;49.40;;;27.10;;
4047;SDS011;2038;51.728;6.674;2023-05-10T11:34:25;46.73;;;30.53;;
4047;SDS011;2038;51.728;6.674;2023-05-10T11:36:59;53.53;;;29.93;;
4047;SDS011;2038;51.728;6.674;2023-05-10T11:39:30;47.20;;;29.80;;
4047;SDS011;2038;51.728;6.674;2023-05-10T11:41:58;41.07;;;29.03;;
4047;SDS011;2038;51.728;6.674;2023-05-10T11:44:31;48.10;;;30.23;;
4047;SDS011;2038;51.728;6.674;2023-05-10T11:47:01;42.80;;;27.50;;
4047;SDS011;2038;51.728;6.674;2023-05-10T11:49:28;46.27;;;28.43;;
4047;SDS011;2038;51.728;6.674;2023-05-10T11:52:03;39.13;;;26.13;;
4047;SDS011;2038;51.728;6.674;2023-05-10T11:54:32;41.87;;;27.60;;
4047;SDS011;2038;51.728;6.674;2023-05-10T11:57:02;43.73;;;27.90;;
4047;SDS011;2038;51.728;6.674;2023-05-10T11:59:28;42.97;;;27.83;;
4047;SDS011;2038;51.728;6.674;2023-05-10T12:01:55;47.40;;;28.63;;
4047;SDS011;2038;51.728;6.674;2023-05-10T12:04:21;42.97;;;28.80;;
4047;SDS011;2038;51.728;6.674;2023-05-10T12:06:48;45.97;;;29.80;;
4047;SDS011;2038;51.728;6.674;2023-05-10T12:09:14;40.93;;;27.23;;
4047;SDS011;2038;51.728;6.674;2023-05-10T12:11:40;44.83;;;26.10;;
4047;SDS011;2038;51.728;6.674;2023-05-10T12:14:07;37.23;;;26.03;;
4047;SDS011;2038;51.728;6.674;2023-05-10T12:16:35;36.23;;;25.80;;
4047;SDS011;2038;51.728;6.674;2023-05-10T12:19:01;36.83;;;25.70;;
4047;SDS011;2038;51.728;6.674;2023-05-10T12:21:28;34.00;;;21.80;;
4047;SDS011;2038;51.728;6.674;2023-05-10T12:24:02;37.50;;;24.50;;
4047;SDS011;2038;51.728;6.674;2023-05-10T12:26:30;36.83;;;22.80;;
4047;SDS011;2038;51.728;6.674;2023-05-10T12:29:16;40.20;;;26.10;;
4047;SDS011;2038;51.728;6.674;2023-05-10T12:31:53;37.40;;;24.27;;
4047;SDS011;2038;51.728;6.674;2023-05-10T12:34:26;40.17;;;25.20;;
4047;SDS011;2038;51.728;6.674;2023-05-10T12:36:58;27.60;;;19.77;;
4047;SDS011;2038;51.728;6.674;2023-05-10T12:39:25;30.07;;;20.40;;
4047;SDS011;2038;51.728;6.674;2023-05-10T12:42:05;34.90;;;22.27;;
4047;SDS011;2038;51.728;6.674;2023-05-10T12:44:32;27.80;;;18.70;;
4047;SDS011;2038;51.728;6.674;2023-05-10T12:46:58;28.30;;;19.70;;
4047;SDS011;2038;51.728;6.674;2023-05-10T12:49:24;27.77;;;19.80;;
4047;SDS011;2038;51.728;6.674;2023-05-10T12:51:51;28.57;;;19.67;;
4047;SDS011;2038;51.728;6.674;2023-05-10T12:54:17;24.97;;;16.60;;
4047;SDS011;2038;51.728;6.674;2023-05-10T12:56:43;27.07;;;17.87;;
4047;SDS011;2038;51.728;6.674;2023-05-10T12:59:09;23.10;;;16.23;;
4047;SDS011;2038;51.728;6.674;2023-05-10T13:01:35;24.63;;;15.97;;
4047;SDS011;2038;51.728;6.674;2023-05-10T13:04:02;22.23;;;15.27;;
4047;SDS011;2038;51.728;6.674;2023-05-10T13:06:28;24.70;;;18.07;;
4047;SDS011;2038;51.728;6.674;2023-05-10T13:08:55;23.03;;;15.80;;
4047;SDS011;2038;51.728;6.674;2023-05-10T13:11:22;24.17;;;17.20;;
4047;SDS011;2038;51.728;6.674;2023-05-10T13:13:48;28.07;;;17.50;;
4047;SDS011;2038;51.728;6.674;2023-05-10T13:16:15;30.07;;;19.03;;
4047;SDS011;2038;51.728;6.674;2023-05-10T13:18:41;26.53;;;17.00;;
4047;SDS011;2038;51.728;6.674;2023-05-10T13:21:07;28.73;;;16.10;;
4047;SDS011;2038;51.728;6.674;2023-05-10T13:23:34;26.13;;;16.23;;
4047;SDS011;2038;51.728;6.674;2023-05-10T13:26:00;21.57;;;14.93;;
4047;SDS011;2038;51.728;6.674;2023-05-10T13:28:26;20.33;;;13.97;;
4047;SDS011;2038;51.728;6.674;2023-05-10T13:30:52;21.27;;;15.40;;
4047;SDS011;2038;51.728;6.674;2023-05-10T13:33:18;20.00;;;14.37;;
4047;SDS011;2038;51.728;6.674;2023-05-10T13:35:45;19.40;;;13.73;;
4047;SDS011;2038;51.728;6.674;2023-05-10T13:38:11;24.50;;;15.93;;
4047;SDS011;2038;51.728;6.674;2023-05-10T13:40:38;20.13;;;13.67;;
4047;SDS011;2038;51.728;6.674;2023-05-10T13:43:04;22.97;;;16.07;;
4047;SDS011;2038;51.728;6.674;2023-05-10T13:45:31;17.73;;;14.37;;
4047;SDS011;2038;51.728;6.674;2023-05-10T13:47:57;22.90;;;15.97;;
4047;SDS011;2038;51.728;6.674;2023-05-10T13:50:24;23.17;;;15.67;;
4047;SDS011;2038;51.728;6.674;2023-05-10T13:52:50;25.60;;;15.60;;
4047;SDS011;2038;51.728;6.674;2023-05-10T13:55:16;26.87;;;16.50;;
4047;SDS011;2038;51.728;6.674;2023-05-10T13:57:43;22.10;;;16.30;;
4047;SDS011;2038;51.728;6.674;2023-05-10T14:00:09;21.53;;;16.33;;
4047;SDS011;2038;51.728;6.674;2023-05-10T14:02:36;25.73;;;15.80;;
4047;SDS011;2038;51.728;6.674;2023-05-10T14:05:02;23.53;;;16.27;;
4047;SDS011;2038;51.728;6.674;2023-05-10T14:07:29;20.50;;;15.73;;
4047;SDS011;2038;51.728;6.674;2023-05-10T14:09:55;20.73;;;15.13;;
4047;SDS011;2038;51.728;6.674;2023-05-10T14:12:21;20.10;;;14.80;;
4047;SDS011;2038;51.728;6.674;2023-05-10T14:14:48;25.13;;;15.57;;
4047;SDS011;2038;51.728;6.674;2023-05-10T14:17:14;27.20;;;14.60;;
4047;SDS011;2038;51.728;6.674;2023-05-10T14:19:40;20.60;;;14.97;;
4047;SDS011;2038;51.728;6.674;2023-05-10T14:22:06;23.77;;;14.30;;
4047;SDS011;2038;51.728;6.674;2023-05-10T14:24:32;17.97;;;13.00;;
4047;SDS011;2038;51.728;6.674;2023-05-10T14:26:59;21.30;;;12.90;;
4047;SDS011;2038;51.728;6.674;2023-05-10T14:29:25;21.93;;;15.20;;
4047;SDS011;2038;51.728;6.674;2023-05-10T14:31:52;16.73;;;13.60;;
4047;SDS011;2038;51.728;6.674;2023-05-10T14:34:18;19.43;;;12.60;;
4047;SDS011;2038;51.728;6.674;2023-05-10T14:36:44;17.47;;;12.20;;
4047;SDS011;2038;51.728;6.674;2023-05-10T14:39:11;25.40;;;13.70;;
4047;SDS011;2038;51.728;6.674;2023-05-10T14:41:38;16.60;;;11.90;;
4047;SDS011;2038;51.728;6.674;2023-05-10T14:44:07;19.87;;;13.90;;
4047;SDS011;2038;51.728;6.674;2023-05-10T14:46:34;17.93;;;13.03;;
4047;SDS011;2038;51.728;6.674;2023-05-10T14:49:01;18.07;;;12.60;;
4047;SDS011;2038;51.728;6.674;2023-05-10T14:51:27;17.87;;;12.20;;
4047;SDS011;2038;51.728;6.674;2023-05-10T14:53:53;15.10;;;11.93;;
4047;SDS011;2038;51.728;6.674;2023-05-10T14:56:19;14.87;;;11.60;;
4047;SDS011;2038;51.728;6.674;2023-05-10T14:58:46;15.53;;;10.93;;
4047;SDS011;2038;51.728;6.674;2023-05-10T15:01:14;15.20;;;11.07;;
4047;SDS011;2038;51.728;6.674;2023-05-10T15:03:40;17.60;;;10.27;;
4047;SDS011;2038;51.728;6.674;2023-05-10T15:06:07;15.20;;;10.70;;
4047;SDS011;2038;51.728;6.674;2023-05-10T15:08:34;16.60;;;11.47;;
4047;SDS011;2038;51.728;6.674;2023-05-10T15:11:00;15.10;;;12.47;;
4047;SDS011;2038;51.728;6.674;2023-05-10T15:13:26;21.70;;;13.87;;
4047;SDS011;2038;51.728;6.674;2023-05-10T15:15:52;17.47;;;13.70;;
4047;SDS011;2038;51.728;6.674;2023-05-10T15:18:19;19.60;;;14.70;;
4047;SDS011;2038;51.728;6.674;2023-05-10T15:20:45;21.83;;;14.23;;
4047;SDS011;2038;51.728;6.674;2023-05-10T15:23:11;20.93;;;15.87;;
4047;SDS011;2038;51.728;6.674;2023-05-10T15:25:37;22.10;;;16.57;;